Bowmanville, Canada
Current Conditions -  °F | °C
As of 1:00 PM on Sunday 25 Jan 2015 (Local Time) from CYOO Reporting Station
Clear Clear  
Wind Chill: -14°   Ceiling: Unl
Heat Index: -9°   Visibility: 9mi
Dew Point: -17°   Wind: 7mph
Humidity: 53%   Direction: 320°NW
Pressure: 29.94"   Gusts: NA
Location:  43.91°N, 78.69°W
Report Text: CYOO 251800Z AUTO 32006KT 290V020 9SM CLR M09/M17 A2994 RMK SLP147
Loading
Personal Weather Stations






























Interactive Weather Map New forecast layout! Learn more

10-Day Weather Forecast

Advertisements
Track Severe Weather on mobile